Time;durP1;ratioP1;P1;durP2;ratioP2;P2;SDS_P1;SDS_P2;PMS_P1;PMS_P2;Temp;Humidity;BMP_temperature;BMP_pressure;BME280_temperature;BME280_humidity;BME280_pressure;Samples;Min_cycle;Max_cycle;Signal;HPM_P1;HPM_P2
2023/06/05 00:02:13;;;;;;;3.83;2.60;;;14.90;99.90;;;;;;5033008;28;20445;-80
2023/06/05 00:04:40;;;;;;;2.83;2.60;;;14.90;99.90;;;;;;5030744;28;20469;-81
2023/06/05 00:07:08;;;;;;;7.10;3.70;;;14.90;99.90;;;;;;5034896;28;20485;-82
2023/06/05 00:09:35;;;;;;;3.50;3.20;;;14.90;99.90;;;;;;5030504;28;20961;-79
2023/06/05 00:12:02;;;;;;;4.00;3.70;;;15.00;99.90;;;;;;5040391;28;20532;-79
2023/06/05 00:14:30;;;;;;;3.77;2.90;;;14.90;99.90;;;;;;5038441;28;20443;-79
2023/06/05 00:16:57;;;;;;;2.70;2.60;;;14.90;99.90;;;;;;5041595;28;20972;-79
2023/06/05 00:19:24;;;;;;;3.10;2.90;;;14.90;99.90;;;;;;5041615;28;20457;-79
2023/06/05 00:21:52;;;;;;;5.30;3.40;;;14.90;99.90;;;;;;5044449;28;20457;-78
2023/06/05 00:24:21;;;;;;;3.10;2.90;;;14.90;99.90;;;;;;5030413;28;20541;-77
2023/06/05 00:26:48;;;;;;;3.67;2.93;;;14.80;99.90;;;;;;5033685;28;20485;-80
2023/06/05 00:29:15;;;;;;;2.90;2.70;;;14.80;99.90;;;;;;5033077;28;20450;-80
2023/06/05 00:31:43;;;;;;;4.20;3.80;;;14.80;99.90;;;;;;5030254;28;20442;-79
2023/06/05 00:34:10;;;;;;;3.23;3.00;;;14.80;99.90;;;;;;5037591;28;20583;-78
2023/06/05 00:36:40;;;;;;;3.10;2.90;;;14.80;99.90;;;;;;5034013;28;20988;-79
2023/06/05 00:39:08;;;;;;;4.90;4.43;;;14.80;99.90;;;;;;5037757;28;20477;-81
2023/06/05 00:41:37;;;;;;;3.43;3.13;;;14.70;99.90;;;;;;5037584;28;20499;-81
2023/06/05 00:44:04;;;;;;;2.73;2.53;;;14.70;99.90;;;;;;5047566;28;20453;-78
2023/06/05 00:46:31;;;;;;;3.30;2.90;;;14.70;99.90;;;;;;5044831;28;20517;-80
2023/06/05 00:48:58;;;;;;;3.23;2.40;;;14.60;99.90;;;;;;5040532;28;20442;-81
2023/06/05 00:51:25;;;;;;;3.73;3.43;;;14.60;99.90;;;;;;5046855;28;20457;-80
2023/06/05 00:53:52;;;;;;;3.57;3.30;;;14.50;99.90;;;;;;5047660;28;20505;-79
2023/06/05 00:56:20;;;;;;;3.77;3.47;;;14.60;99.90;;;;;;5047263;28;20485;-78
2023/06/05 00:58:49;;;;;;;3.90;3.60;;;14.50;99.90;;;;;;5047307;28;20441;-79
2023/06/05 01:01:17;;;;;;;3.33;3.03;;;14.50;99.90;;;;;;5047349;28;20954;-82
2023/06/05 01:03:45;;;;;;;3.50;3.20;;;14.50;99.90;;;;;;5044596;28;20469;-78
2023/06/05 01:06:12;;;;;;;3.50;3.20;;;14.50;99.90;;;;;;5047651;28;21005;-79
2023/06/05 01:08:39;;;;;;;3.33;3.10;;;14.50;99.90;;;;;;5046120;28;20497;-80
2023/06/05 01:11:15;;;;;;;6.50;3.47;;;14.50;99.90;;;;;;5046687;28;20473;-78
2023/06/05 01:13:48;;;;;;;4.20;3.80;;;14.60;99.90;;;;;;5047410;28;20629;-78
2023/06/05 01:16:16;;;;;;;4.23;3.83;;;14.50;99.90;;;;;;5047589;28;20537;-82
2023/06/05 01:18:45;;;;;;;4.57;4.17;;;14.50;99.90;;;;;;5046190;28;20476;-80
2023/06/05 01:21:14;;;;;;;3.70;3.50;;;14.40;99.90;;;;;;5045322;28;20456;-79
2023/06/05 01:23:45;;;;;;;4.73;4.10;;;14.40;99.90;;;;;;5047599;28;20522;-80
2023/06/05 01:26:19;;;;;;;3.53;3.23;;;14.30;99.90;;;;;;5045680;28;20461;-79
2023/06/05 01:28:50;;;;;;;3.37;3.03;;;14.40;99.90;;;;;;5045998;28;20928;-79
2023/06/05 01:31:20;;;;;;;4.20;3.27;;;14.40;99.90;;;;;;5047161;28;20473;-78
2023/06/05 01:33:52;;;;;;;3.73;3.40;;;14.40;99.90;;;;;;5044640;28;20535;-82
2023/06/05 01:36:20;;;;;;;4.13;3.60;;;14.30;99.90;;;;;;5043986;28;20471;-79
2023/06/05 01:38:50;;;;;;;3.53;3.10;;;14.30;99.90;;;;;;5046673;28;20437;-79
2023/06/05 01:41:19;;;;;;;4.40;4.00;;;14.30;99.90;;;;;;5045179;28;20465;-79
2023/06/05 01:43:47;;;;;;;4.47;3.07;;;14.30;99.90;;;;;;5047428;28;20449;-78
2023/06/05 01:46:17;;;;;;;3.57;3.27;;;14.30;99.90;;;;;;5046308;28;20476;-78
2023/06/05 01:48:45;;;;;;;3.30;3.00;;;14.30;99.90;;;;;;5046236;28;20457;-78
2023/06/05 01:51:12;;;;;;;7.60;3.70;;;14.20;99.90;;;;;;5046069;28;20481;-80
2023/06/05 01:53:39;;;;;;;3.40;3.20;;;14.20;99.90;;;;;;5045910;28;21156;-80
2023/06/05 01:56:08;;;;;;;3.53;3.30;;;14.30;99.90;;;;;;5047150;28;20441;-79
2023/06/05 01:58:36;;;;;;;4.33;3.13;;;14.30;99.90;;;;;;5046449;28;20441;-78
2023/06/05 02:01:05;;;;;;;2.87;2.67;;;14.20;99.90;;;;;;5045509;28;20526;-83
2023/06/05 02:03:32;;;;;;;3.13;2.93;;;14.20;99.90;;;;;;5042896;28;20449;-78
2023/06/05 02:05:59;;;;;;;3.50;3.20;;;14.10;99.90;;;;;;5031699;28;20462;-79
2023/06/05 02:08:28;;;;;;;2.80;2.60;;;14.10;99.90;;;;;;5030185;28;20477;-79
2023/06/05 02:10:55;;;;;;;3.00;2.67;;;14.20;99.90;;;;;;5042614;28;20445;-81
2023/06/05 02:13:24;;;;;;;3.80;3.60;;;14.10;99.90;;;;;;5036936;28;20540;-79
2023/06/05 02:15:56;;;;;;;3.93;3.10;;;14.20;99.90;;;;;;5041814;28;20802;-84
2023/06/05 02:18:27;;;;;;;3.93;3.50;;;14.10;99.90;;;;;;5044670;28;21175;-80
2023/06/05 02:20:57;;;;;;;2.83;2.63;;;14.10;99.90;;;;;;5044670;28;21224;-79
2023/06/05 02:23:24;;;;;;;3.07;2.77;;;14.10;99.90;;;;;;5039679;28;20542;-84
2023/06/05 02:25:51;;;;;;;3.00;2.70;;;14.10;99.90;;;;;;5045601;28;20441;-81
2023/06/05 02:28:19;;;;;;;2.70;2.50;;;14.20;99.90;;;;;;5046298;28;20530;-83
2023/06/05 02:30:48;;;;;;;3.70;3.03;;;14.20;99.90;;;;;;5045517;28;20987;-82
2023/06/05 02:33:15;;;;;;;3.93;3.63;;;14.20;99.90;;;;;;5046136;28;20613;-79
2023/06/05 02:35:42;;;;;;;2.97;2.77;;;14.20;99.90;;;;;;5046434;28;20461;-83
2023/06/05 02:38:12;;;;;;;2.77;2.53;;;14.10;99.90;;;;;;5044848;28;21001;-81
2023/06/05 02:40:39;;;;;;;2.93;2.73;;;14.20;99.90;;;;;;5038431;28;20453;-81
2023/06/05 02:43:06;;;;;;;3.90;2.67;;;14.10;99.90;;;;;;5050322;28;20433;-84
2023/06/05 02:45:35;;;;;;;3.13;2.67;;;14.10;99.90;;;;;;5046850;28;20487;-82
2023/06/05 02:48:05;;;;;;;4.07;2.63;;;14.10;99.90;;;;;;5049977;28;20467;-86
2023/06/05 02:50:32;;;;;;;5.57;2.93;;;14.10;99.90;;;;;;5041373;28;20445;-82
2023/06/05 02:52:59;;;;;;;5.17;3.20;;;14.00;99.90;;;;;;5050442;28;20508;-82
2023/06/05 02:55:29;;;;;;;3.70;3.40;;;14.10;99.90;;;;;;5041710;28;20956;-84
2023/06/05 02:57:57;;;;;;;3.40;3.10;;;14.00;99.90;;;;;;5049541;28;20456;-81
2023/06/05 03:00:25;;;;;;;4.00;3.60;;;14.00;99.90;;;;;;5049155;28;20453;-81
2023/06/05 03:02:52;;;;;;;3.80;3.50;;;14.00;99.90;;;;;;5049951;28;20441;-83
2023/06/05 03:05:24;;;;;;;4.83;2.77;;;14.00;99.90;;;;;;5049379;28;20506;-81
2023/06/05 03:07:54;;;;;;;3.70;3.23;;;14.00;99.90;;;;;;5049862;28;20448;-82
2023/06/05 03:10:21;;;;;;;3.03;2.83;;;13.90;99.90;;;;;;5048685;28;20563;-81
2023/06/05 03:12:48;;;;;;;3.43;3.13;;;13.80;99.90;;;;;;5048723;28;20812;-81
2023/06/05 03:15:17;;;;;;;4.57;2.90;;;13.80;99.90;;;;;;5047701;28;20451;-81
2023/06/05 03:17:45;;;;;;;3.70;3.40;;;13.80;99.90;;;;;;5048736;28;21145;-83
2023/06/05 03:20:12;;;;;;;3.30;3.00;;;13.70;99.90;;;;;;5049033;28;20452;-81
2023/06/05 03:22:41;;;;;;;3.80;3.13;;;13.80;99.90;;;;;;5043529;28;20961;-83
2023/06/05 03:25:09;;;;;;;5.07;4.53;;;13.80;99.90;;;;;;5038951;28;20852;-82
2023/06/05 03:27:36;;;;;;;4.30;3.90;;;13.80;99.90;;;;;;5043514;28;20462;-83
2023/06/05 03:30:03;;;;;;;4.30;3.90;;;13.90;99.90;;;;;;5036280;28;20995;-81
2023/06/05 03:32:30;;;;;;;4.03;3.63;;;13.90;99.90;;;;;;5029148;28;20765;-82
2023/06/05 03:34:57;;;;;;;4.60;4.17;;;14.00;99.90;;;;;;5046690;28;20481;-76
2023/06/05 03:37:24;;;;;;;3.77;3.47;;;14.00;99.90;;;;;;5046484;28;20553;-81
2023/06/05 03:39:52;;;;;;;3.30;3.10;;;13.90;99.90;;;;;;5031569;28;20463;-83
2023/06/05 03:42:19;;;;;;;3.73;3.43;;;13.90;99.90;;;;;;5041125;28;20535;-81
2023/06/05 03:44:46;;;;;;;4.20;3.80;;;14.00;99.90;;;;;;5033789;28;20517;-80
2023/06/05 03:47:14;;;;;;;3.53;3.23;;;14.00;99.90;;;;;;5034956;28;20497;-83
2023/06/05 03:49:45;;;;;;;3.30;3.00;;;14.00;99.90;;;;;;5037232;28;20446;-82
2023/06/05 03:52:14;;;;;;;4.00;3.70;;;14.10;99.90;;;;;;5037117;28;20972;-81
2023/06/05 03:54:44;;;;;;;4.00;3.67;;;14.10;99.90;;;;;;5032659;28;20480;-80
2023/06/05 03:57:14;;;;;;;4.00;3.60;;;14.20;99.90;;;;;;5039940;28;20532;-80
2023/06/05 03:59:42;;;;;;;4.77;3.20;;;14.20;99.90;;;;;;5043627;28;20455;-82
2023/06/05 04:02:08;;;;;;;4.87;4.07;;;14.40;99.90;;;;;;5031781;28;20500;-81
2023/06/05 04:04:35;;;;;;;4.60;4.07;;;14.40;99.90;;;;;;5029951;28;20489;-80
2023/06/05 04:07:02;;;;;;;4.40;3.93;;;14.40;99.90;;;;;;5033328;28;20445;-81
2023/06/05 04:09:29;;;;;;;4.50;3.50;;;14.40;99.90;;;;;;5041087;28;20445;-81
2023/06/05 04:11:56;;;;;;;4.83;3.50;;;14.50;99.90;;;;;;5031189;28;20446;-80
2023/06/05 04:14:25;;;;;;;5.00;4.37;;;14.40;99.90;;;;;;5049012;28;20476;-80
2023/06/05 04:16:52;;;;;;;6.30;5.90;;;14.40;99.90;;;;;;5047233;28;20530;-85
2023/06/05 04:19:20;;;;;;;3.73;3.43;;;14.40;99.90;;;;;;5048016;28;20511;-80
2023/06/05 04:21:47;;;;;;;5.97;3.63;;;14.40;99.90;;;;;;5046871;28;20488;-84
2023/06/05 04:24:13;;;;;;;4.03;3.30;;;14.40;99.90;;;;;;5052128;28;20477;-81
2023/06/05 04:26:42;;;;;;;3.83;3.57;;;14.50;99.90;;;;;;5047183;28;20955;-82
2023/06/05 04:29:13;;;;;;;3.67;3.37;;;14.50;99.90;;;;;;5029420;28;20456;-82
2023/06/05 04:31:41;;;;;;;5.80;3.90;;;14.50;99.90;;;;;;5032903;28;21216;-82
2023/06/05 04:34:09;;;;;;;4.93;4.43;;;14.60;99.90;;;;;;5043057;28;21030;-82
2023/06/05 04:36:37;;;;;;;4.77;4.30;;;14.60;99.90;;;;;;5038986;28;20443;-83
2023/06/05 04:39:06;;;;;;;5.17;4.50;;;14.70;99.90;;;;;;5038053;28;20449;-82
2023/06/05 04:41:36;;;;;;;6.70;4.10;;;14.60;99.90;;;;;;5029293;28;20852;-84
2023/06/05 04:44:03;;;;;;;5.40;4.10;;;14.60;99.90;;;;;;5032870;28;20480;-83
2023/06/05 04:46:30;;;;;;;5.10;3.97;;;14.60;99.90;;;;;;5040103;28;21051;-82
2023/06/05 04:48:59;;;;;;;5.70;3.83;;;14.70;99.90;;;;;;5037738;28;20515;-82
2023/06/05 04:51:25;;;;;;;9.80;4.40;;;14.70;99.90;;;;;;5034241;28;20523;-84
2023/06/05 04:53:53;;;;;;;6.33;3.80;;;14.90;99.90;;;;;;5041354;28;20570;-80
2023/06/05 04:56:22;;;;;;;8.53;4.80;;;14.90;99.90;;;;;;5038600;28;20509;-80
2023/06/05 04:58:50;;;;;;;4.93;4.53;;;14.80;99.90;;;;;;5031923;28;20437;-81
2023/06/05 05:01:17;;;;;;;6.00;4.63;;;14.90;99.90;;;;;;5034474;28;20454;-80
2023/06/05 05:03:47;;;;;;;4.83;4.43;;;14.90;99.90;;;;;;5038705;28;20507;-82
2023/06/05 05:06:17;;;;;;;4.40;4.10;;;15.10;99.90;;;;;;5027489;28;20461;-79
2023/06/05 05:08:46;;;;;;;5.27;4.87;;;15.00;99.90;;;;;;5036215;28;20490;-78
2023/06/05 05:11:13;;;;;;;4.73;4.37;;;15.00;99.90;;;;;;5027209;28;20450;-83
2023/06/05 05:13:40;;;;;;;4.93;4.53;;;15.10;99.90;;;;;;5040390;28;20476;-82
2023/06/05 05:16:08;;;;;;;4.30;3.80;;;15.20;99.90;;;;;;5039897;28;20990;-82
2023/06/05 05:18:36;;;;;;;5.57;4.87;;;15.20;99.90;;;;;;5045742;28;20457;-80
2023/06/05 05:21:04;;;;;;;5.80;5.30;;;15.20;99.90;;;;;;5046697;28;20476;-83
2023/06/05 05:23:33;;;;;;;4.93;4.40;;;15.40;99.90;;;;;;5044395;28;20942;-79
2023/06/05 05:26:00;;;;;;;4.40;4.00;;;15.30;99.90;;;;;;5044857;28;20497;-79
2023/06/05 05:28:27;;;;;;;5.57;4.87;;;15.40;99.90;;;;;;5027023;28;20504;-81
2023/06/05 05:30:55;;;;;;;5.07;4.60;;;15.50;99.90;;;;;;5032170;28;20469;-81
2023/06/05 05:33:22;;;;;;;7.83;5.10;;;15.70;99.90;;;;;;5032172;28;20543;-79
2023/06/05 05:35:50;;;;;;;6.90;5.70;;;15.90;99.90;;;;;;5040014;28;20509;-79
2023/06/05 05:38:17;;;;;;;6.30;5.20;;;16.10;99.90;;;;;;5037655;28;20481;-79
2023/06/05 05:40:45;;;;;;;6.57;5.40;;;16.40;99.90;;;;;;5039892;28;20993;-80
2023/06/05 05:43:12;;;;;;;5.77;5.27;;;16.50;99.90;;;;;;5026147;28;20454;-81
2023/06/05 05:45:40;;;;;;;7.03;5.53;;;16.40;99.90;;;;;;5026924;28;20469;-82
2023/06/05 05:48:08;;;;;;;8.80;6.20;;;16.40;99.90;;;;;;5037817;28;20465;-80
2023/06/05 05:50:35;;;;;;;5.70;5.30;;;16.50;99.90;;;;;;5034757;28;20469;-80
2023/06/05 05:53:03;;;;;;;6.90;6.33;;;16.50;99.90;;;;;;5042879;28;20485;-79
2023/06/05 05:55:30;;;;;;;9.30;6.00;;;16.50;99.90;;;;;;5034931;28;20512;-79
2023/06/05 05:57:58;;;;;;;6.73;6.13;;;16.50;99.90;;;;;;5041497;28;20477;-79
2023/06/05 06:00:25;;;;;;;6.00;5.40;;;16.30;99.90;;;;;;5036128;28;20515;-79
2023/06/05 06:02:53;;;;;;;7.10;6.50;;;16.20;99.90;;;;;;5041747;28;20481;-82
2023/06/05 06:05:21;;;;;;;8.23;7.40;;;16.20;99.90;;;;;;5036483;28;20478;-80
2023/06/05 06:07:48;;;;;;;8.33;7.37;;;16.30;99.90;;;;;;5036284;28;21018;-80
2023/06/05 06:10:16;;;;;;;7.17;6.53;;;16.50;99.90;;;;;;5040773;28;20510;-81
2023/06/05 06:12:44;;;;;;;7.50;6.90;;;16.60;99.90;;;;;;5039550;28;20489;-80
2023/06/05 06:15:12;;;;;;;8.43;7.10;;;16.40;99.90;;;;;;5043019;28;20590;-80
2023/06/05 06:17:39;;;;;;;7.37;6.57;;;16.60;99.90;;;;;;5050740;28;20453;-79
2023/06/05 06:20:09;;;;;;;8.33;7.57;;;16.80;99.90;;;;;;5051017;28;21232;-79
2023/06/05 06:22:36;;;;;;;7.67;7.03;;;16.90;99.90;;;;;;5049612;28;20437;-81
2023/06/05 06:25:03;;;;;;;10.53;8.13;;;17.20;99.90;;;;;;5045646;28;20465;-79
2023/06/05 06:27:30;;;;;;;7.67;7.07;;;17.50;99.90;;;;;;5040321;28;20458;-81
2023/06/05 06:29:58;;;;;;;9.43;8.17;;;17.60;99.90;;;;;;5047043;28;21038;-81
2023/06/05 06:32:27;;;;;;;9.50;8.30;;;17.50;99.90;;;;;;5039471;28;20463;-79
2023/06/05 06:34:54;;;;;;;9.33;8.13;;;17.80;99.90;;;;;;5048645;28;20477;-79
2023/06/05 06:37:22;;;;;;;8.87;8.10;;;18.00;99.90;;;;;;5047448;28;20462;-79
2023/06/05 06:39:50;;;;;;;7.87;7.27;;;18.00;99.90;;;;;;5042046;28;20442;-78
2023/06/05 06:42:17;;;;;;;12.03;7.27;;;18.00;99.90;;;;;;5038580;28;20449;-80
2023/06/05 06:44:44;;;;;;;8.00;7.33;;;17.90;99.90;;;;;;5045172;28;20909;-80
2023/06/05 06:47:11;;;;;;;8.30;7.60;;;17.70;99.90;;;;;;5045234;28;20469;-82
2023/06/05 06:49:40;;;;;;;8.43;7.83;;;17.60;99.90;;;;;;5048850;28;20454;-79
2023/06/05 06:52:07;;;;;;;8.57;7.97;;;17.50;99.90;;;;;;5050805;28;20838;-78
2023/06/05 06:54:34;;;;;;;7.63;7.00;;;17.60;99.90;;;;;;5039222;28;20512;-80
2023/06/05 06:57:01;;;;;;;8.27;7.63;;;17.90;99.90;;;;;;5040179;28;20438;-79
2023/06/05 06:59:28;;;;;;;7.50;6.90;;;17.70;99.90;;;;;;5037261;28;20464;-78
2023/06/05 07:02:13;;;;;;;7.87;7.37;;;17.60;99.90;;;;;;5031497;28;21247;-81
2023/06/05 07:04:43;;;;;;;8.10;7.40;;;17.90;99.90;;;;;;5034892;28;20441;-79
2023/06/05 07:07:11;;;;;;;8.07;7.47;;;18.40;99.90;;;;;;5044565;28;20473;-82
2023/06/05 07:09:38;;;;;;;8.20;7.60;;;18.20;99.90;;;;;;5045553;28;20433;-81
2023/06/05 07:12:06;;;;;;;8.93;7.90;;;18.10;99.90;;;;;;5036254;28;20470;-79
2023/06/05 07:14:34;;;;;;;6.60;6.10;;;18.00;99.90;;;;;;5042025;28;20480;-82
2023/06/05 07:17:02;;;;;;;7.00;6.53;;;17.90;99.90;;;;;;5050300;28;20487;-79
2023/06/05 07:19:29;;;;;;;9.60;6.80;;;18.10;99.90;;;;;;5035076;28;20467;-79
2023/06/05 07:21:59;;;;;;;8.27;7.63;;;18.20;99.90;;;;;;5040074;28;20456;-78
2023/06/05 07:24:27;;;;;;;7.80;7.10;;;18.00;99.90;;;;;;5043878;28;20458;-80
2023/06/05 07:26:55;;;;;;;7.83;7.23;;;18.00;99.90;;;;;;5041391;28;20497;-78
2023/06/05 07:29:23;;;;;;;7.87;7.27;;;17.80;99.90;;;;;;5040568;28;20496;-79
2023/06/05 07:31:50;;;;;;;7.60;7.00;;;17.70;99.90;;;;;;5037620;28;20969;-78
2023/06/05 07:34:19;;;;;;;8.80;7.97;;;17.50;99.90;;;;;;5040016;28;21085;-83
2023/06/05 07:36:47;;;;;;;8.47;7.87;;;17.40;99.90;;;;;;5045495;28;20520;-81
2023/06/05 07:39:16;;;;;;;7.93;7.30;;;17.60;99.90;;;;;;5040685;28;20444;-78
2023/06/05 07:41:44;;;;;;;7.50;6.90;;;17.80;99.90;;;;;;5040827;28;20488;-77
2023/06/05 07:44:12;;;;;;;8.07;7.40;;;18.10;99.90;;;;;;5032464;28;20444;-81
2023/06/05 07:46:41;;;;;;;7.93;7.30;;;18.30;99.90;;;;;;5034496;28;20486;-82
2023/06/05 07:49:08;;;;;;;8.10;7.40;;;18.70;99.90;;;;;;5039779;28;20697;-82
2023/06/05 07:51:37;;;;;;;7.30;6.80;;;18.80;99.90;;;;;;5036697;28;20540;-79
2023/06/05 07:54:04;;;;;;;7.10;6.40;;;19.00;99.90;;;;;;5029363;28;21169;-80
2023/06/05 07:56:33;;;;;;;8.97;8.07;;;19.20;99.90;;;;;;5040933;28;20520;-78
2023/06/05 07:59:00;;;;;;;7.63;6.97;;;19.80;99.90;;;;;;5038275;28;20463;-81
2023/06/05 08:01:27;;;;;;;7.40;6.63;;;19.90;99.90;;;;;;5032911;28;20446;-78
2023/06/05 08:03:55;;;;;;;8.03;7.30;;;20.00;99.90;;;;;;5033950;28;20458;-78
2023/06/05 08:06:24;;;;;;;7.43;6.83;;;20.10;99.90;;;;;;5040502;28;20711;-78
2023/06/05 08:08:50;;;;;;;8.63;6.97;;;19.90;99.90;;;;;;5041562;28;20529;-82
2023/06/05 08:11:17;;;;;;;8.60;7.70;;;19.90;99.90;;;;;;5033900;28;20534;-79
2023/06/05 08:13:46;;;;;;;6.70;6.20;;;20.20;99.90;;;;;;5028193;28;20436;-78
2023/06/05 08:16:15;;;;;;;7.57;6.97;;;20.00;99.90;;;;;;5040959;28;20492;-81
2023/06/05 08:18:43;;;;;;;6.53;5.97;;;20.30;99.90;;;;;;5035154;28;20556;-79
2023/06/05 08:21:11;;;;;;;7.00;6.40;;;20.30;99.90;;;;;;5039698;28;20774;-78
2023/06/05 08:23:38;;;;;;;7.80;7.30;;;20.20;99.90;;;;;;5043108;28;20473;-79
2023/06/05 08:26:10;;;;;;;6.20;5.80;;;20.10;99.90;;;;;;5039851;28;20581;-78
2023/06/05 08:28:38;;;;;;;6.43;5.93;;;20.20;99.90;;;;;;5036882;28;21046;-81
2023/06/05 08:31:07;;;;;;;10.80;7.60;;;20.40;99.90;;;;;;5041260;28;20837;-79
2023/06/05 08:33:34;;;;;;;6.50;5.90;;;20.30;99.90;;;;;;5029256;28;20485;-80
2023/06/05 08:36:02;;;;;;;7.30;6.70;;;20.40;99.90;;;;;;5036814;28;20508;-78
2023/06/05 08:38:29;;;;;;;6.80;6.23;;;20.60;99.90;;;;;;5033927;28;20468;-79
2023/06/05 08:41:01;;;;;;;6.00;5.50;;;20.70;99.90;;;;;;5037953;28;20508;-78
2023/06/05 08:43:28;;;;;;;7.50;6.47;;;20.60;99.90;;;;;;5031928;28;20500;-78
2023/06/05 08:45:57;;;;;;;7.80;7.10;;;20.60;99.90;;;;;;5042742;28;20528;-79
2023/06/05 08:48:26;;;;;;;6.83;6.10;;;20.60;99.90;;;;;;5041679;28;20537;-80
2023/06/05 08:50:54;;;;;;;6.93;6.43;;;20.70;99.90;;;;;;5041741;28;20503;-79
2023/06/05 08:53:25;;;;;;;6.83;6.30;;;20.90;99.90;;;;;;5035254;28;21226;-78
2023/06/05 08:55:55;;;;;;;5.93;5.30;;;21.10;99.90;;;;;;5033627;28;20499;-79
2023/06/05 08:58:23;;;;;;;7.40;6.80;;;21.10;99.90;;;;;;5041221;28;21109;-80
2023/06/05 09:00:50;;;;;;;8.73;7.50;;;21.20;99.90;;;;;;5036875;28;20457;-79
2023/06/05 09:03:19;;;;;;;6.10;5.70;;;22.00;99.90;;;;;;5033954;28;20532;-78
2023/06/05 09:05:48;;;;;;;6.73;6.23;;;22.20;99.90;;;;;;5042673;28;20456;-80
2023/06/05 09:08:16;;;;;;;6.17;5.67;;;22.10;98.20;;;;;;5031900;28;20451;-79
2023/06/05 09:10:44;;;;;;;6.57;5.83;;;22.30;99.40;;;;;;5041628;28;21151;-81
2023/06/05 09:13:11;;;;;;;5.57;5.27;;;21.80;99.90;;;;;;5033123;28;20473;-79
2023/06/05 09:15:38;;;;;;;6.50;6.00;;;21.80;99.70;;;;;;5038715;28;20586;-79
2023/06/05 09:18:08;;;;;;;6.20;5.70;;;22.00;99.60;;;;;;5043039;28;20477;-79
2023/06/05 09:20:36;;;;;;;5.80;5.47;;;22.10;99.60;;;;;;5043554;28;20528;-82
2023/06/05 09:23:21;;;;;;;6.47;5.97;;;21.80;99.90;;;;;;5044870;28;20522;-79
2023/06/05 09:25:50;;;;;;;5.93;5.50;;;22.10;99.10;;;;;;5042332;28;20481;-82
2023/06/05 09:28:17;;;;;;;6.30;5.90;;;21.50;99.50;;;;;;5026968;28;20438;-79
2023/06/05 09:30:58;;;;;;;6.17;5.77;;;21.30;99.90;;;;;;5038986;28;20460;-78
2023/06/05 09:33:26;;;;;;;5.83;5.33;;;21.30;99.90;;;;;;5031568;28;20485;-78
2023/06/05 09:36:04;;;;;;;7.17;6.67;;;21.10;99.90;;;;;;5041589;28;20979;-80
2023/06/05 09:38:33;;;;;;;5.80;5.40;;;21.10;99.90;;;;;;5034218;28;20451;-79
2023/06/05 09:41:06;;;;;;;6.10;5.60;;;21.10;99.90;;;;;;5041540;28;20485;-79
2023/06/05 09:43:34;;;;;;;7.07;6.50;;;21.50;99.90;;;;;;5026827;28;20501;-83
2023/06/05 09:46:07;;;;;;;4.90;4.50;;;22.00;99.90;;;;;;5031167;28;20484;-79
2023/06/05 09:48:35;;;;;;;6.27;5.77;;;21.90;99.40;;;;;;5037944;28;20467;-79
2023/06/05 09:51:12;;;;;;;7.10;5.10;;;21.60;99.90;;;;;;5039803;28;20499;-79
2023/06/05 09:53:43;;;;;;;6.37;5.87;;;21.90;99.60;;;;;;5035816;28;20529;-81
2023/06/05 09:56:13;;;;;;;6.47;5.97;;;21.70;99.40;;;;;;5031532;28;20509;-83
2023/06/05 09:58:45;;;;;;;6.87;6.37;;;21.80;99.60;;;;;;5031450;28;20962;-79
2023/06/05 10:01:13;;;;;;;5.77;5.07;;;22.40;98.80;;;;;;5039089;28;20446;-80
2023/06/05 10:03:43;;;;;;;5.43;5.03;;;22.60;98.30;;;;;;5039845;28;20513;-79
2023/06/05 10:06:10;;;;;;;5.00;4.70;;;22.10;99.20;;;;;;5030448;28;20445;-79
2023/06/05 10:08:38;;;;;;;4.87;4.47;;;22.60;97.90;;;;;;5028682;28;20520;-79
2023/06/05 10:11:08;;;;;;;4.63;4.23;;;22.70;97.30;;;;;;5036477;28;20932;-79
2023/06/05 10:13:36;;;;;;;5.40;4.90;;;23.00;97.30;;;;;;5042452;28;20473;-80
2023/06/05 10:16:03;;;;;;;5.97;4.90;;;23.10;97.40;;;;;;5033516;28;20518;-79
2023/06/05 10:18:31;;;;;;;5.27;4.77;;;23.40;97.20;;;;;;5036632;28;20488;-83
2023/06/05 10:20:59;;;;;;;6.30;4.47;;;23.30;97.00;;;;;;5038797;28;20458;-78
2023/06/05 10:23:28;;;;;;;4.20;3.83;;;22.60;95.50;;;;;;5030535;28;20529;-81
2023/06/05 10:25:58;;;;;;;5.47;5.00;;;22.40;97.50;;;;;;5037538;28;20913;-78
2023/06/05 10:28:42;;;;;;;5.13;4.10;;;22.20;98.30;;;;;;5038715;28;20453;-81
2023/06/05 10:31:26;;;;;;;6.87;4.20;;;22.40;99.50;;;;;;5029718;28;20441;-79
2023/06/05 10:34:04;;;;;;;5.30;4.80;;;22.60;97.90;;;;;;5027168;28;20832;-78
2023/06/05 10:36:57;;;;;;;5.03;4.67;;;22.00;97.90;;;;;;5038141;28;20476;-78
2023/06/05 10:39:26;;;;;;;5.90;5.40;;;22.20;99.70;;;;;;5030186;28;20482;-83
2023/06/05 10:41:53;;;;;;;4.20;3.90;;;22.20;98.00;;;;;;5029373;28;20494;-84
2023/06/05 10:44:40;;;;;;;4.67;4.27;;;22.30;98.30;;;;;;5027116;28;21082;-79
2023/06/05 10:47:40;;;;;;;5.33;4.83;;;22.30;98.90;;;;;;5027138;28;21137;-79
2023/06/05 10:50:25;;;;;;;6.17;5.20;;;22.30;98.50;;;;;;5037782;28;20453;-79
2023/06/05 10:52:53;;;;;;;5.17;4.77;;;22.20;99.30;;;;;;5026078;28;20442;-79
2023/06/05 10:55:21;;;;;;;4.73;4.17;;;21.90;98.90;;;;;;5037546;28;20461;-81
2023/06/05 10:58:09;;;;;;;5.57;5.07;;;22.00;98.80;;;;;;5041999;28;20914;-81
2023/06/05 11:00:38;;;;;;;5.20;4.50;;;21.50;98.50;;;;;;5034739;28;20480;-78
2023/06/05 11:03:10;;;;;;;5.37;4.87;;;21.70;99.80;;;;;;5040237;28;20488;-77
2023/06/05 11:05:37;;;;;;;4.87;4.57;;;21.90;98.80;;;;;;5033725;28;20484;-78
2023/06/05 11:08:15;;;;;;;5.60;4.50;;;21.70;98.40;;;;;;5033333;28;20446;-78
2023/06/05 11:11:13;;;;;;;4.90;4.60;;;21.50;99.90;;;;;;5048940;28;20444;-80
2023/06/05 11:13:56;;;;;;;6.97;4.77;;;21.60;99.60;;;;;;4969715;28;20958;-80
2023/06/05 11:16:32;;;;;;;4.63;4.33;;;21.60;99.90;;;;;;5037220;28;20538;-79
2023/06/05 11:19:38;;;;;;;4.97;4.50;;;21.80;99.90;;;;;;5048936;28;20456;-80
2023/06/05 11:22:08;;;;;;;4.20;3.90;;;21.30;99.70;;;;;;5037261;28;20939;-80
2023/06/05 11:24:36;;;;;;;3.93;3.67;;;21.20;99.90;;;;;;5049398;28;20473;-79
2023/06/05 11:27:04;;;;;;;4.40;4.10;;;21.40;99.90;;;;;;5048163;28;20461;-79
2023/06/05 11:29:31;;;;;;;5.60;4.23;;;21.30;99.70;;;;;;5047053;28;20463;-79
2023/06/05 11:32:00;;;;;;;5.23;4.17;;;21.20;99.90;;;;;;5048505;28;21163;-79
2023/06/05 11:34:27;;;;;;;6.60;4.37;;;21.30;99.90;;;;;;5047950;28;20441;-79
2023/06/05 11:36:55;;;;;;;4.30;3.90;;;21.40;99.90;;;;;;5048125;28;20564;-79
2023/06/05 11:39:22;;;;;;;4.63;4.23;;;21.40;99.90;;;;;;5048395;28;20595;-81
2023/06/05 11:41:51;;;;;;;3.83;3.53;;;21.30;99.90;;;;;;5048592;28;20846;-80
2023/06/05 11:44:32;;;;;;;5.63;4.23;;;21.40;99.90;;;;;;5044575;28;20853;-79
2023/06/05 11:47:00;;;;;;;6.73;4.50;;;21.30;99.90;;;;;;5049736;28;20437;-80
2023/06/05 11:49:28;;;;;;;4.93;4.57;;;21.30;99.90;;;;;;5048477;28;20518;-80
2023/06/05 11:51:56;;;;;;;5.47;5.07;;;21.10;99.90;;;;;;5048572;28;20484;-83
2023/06/05 11:54:33;;;;;;;6.00;5.53;;;20.90;99.90;;;;;;5048818;28;20537;-80
2023/06/05 11:57:08;;;;;;;10.13;5.83;;;21.00;99.90;;;;;;5046860;28;21043;-80
2023/06/05 11:59:36;;;;;;;4.93;4.30;;;21.00;99.90;;;;;;5047309;28;20867;-80
2023/06/05 12:02:05;;;;;;;5.60;5.07;;;20.70;99.90;;;;;;5040350;28;20442;-83
2023/06/05 12:04:33;;;;;;;5.50;5.10;;;20.70;99.90;;;;;;5048106;28;20453;-84
2023/06/05 12:07:01;;;;;;;5.03;4.73;;;20.90;99.90;;;;;;5049046;28;20437;-80
2023/06/05 12:09:28;;;;;;;6.90;6.10;;;20.60;99.90;;;;;;5048267;28;20469;-79
2023/06/05 12:12:07;;;;;;;6.37;5.87;;;20.40;99.90;;;;;;5045192;28;20529;-80
2023/06/05 12:14:35;;;;;;;6.70;6.20;;;20.50;99.90;;;;;;5029980;28;20445;-80
2023/06/05 12:17:10;;;;;;;7.30;6.03;;;20.20;99.90;;;;;;5046155;28;20543;-79
2023/06/05 12:19:38;;;;;;;7.33;6.00;;;19.90;99.90;;;;;;5048305;28;20528;-82
2023/06/05 12:22:09;;;;;;;7.47;6.77;;;19.80;99.90;;;;;;5049236;28;20560;-79
2023/06/05 12:24:35;;;;;;;7.40;6.70;;;19.60;99.90;;;;;;5047044;28;20809;-80
2023/06/05 12:27:05;;;;;;;7.10;6.50;;;19.60;99.90;;;;;;5037100;28;20496;-80
2023/06/05 12:29:34;;;;;;;7.03;6.53;;;19.50;99.90;;;;;;5034242;28;20887;-82
2023/06/05 12:32:02;;;;;;;7.67;6.90;;;19.30;99.90;;;;;;5035799;28;20539;-79
2023/06/05 12:34:50;;;;;;;8.17;7.57;;;19.10;99.90;;;;;;5038467;28;20481;-78
2023/06/05 12:37:29;;;;;;;8.30;7.70;;;19.00;99.90;;;;;;5037778;28;20485;-82
2023/06/05 12:39:58;;;;;;;9.43;8.73;;;18.90;99.90;;;;;;5027582;28;20456;-79
2023/06/05 12:42:24;;;;;;;8.77;8.07;;;19.00;99.90;;;;;;5032452;28;20457;-79
2023/06/05 12:44:52;;;;;;;9.37;8.57;;;19.00;99.90;;;;;;5031724;28;20496;-79
2023/06/05 12:47:18;;;;;;;9.93;9.13;;;19.00;99.90;;;;;;5033010;28;20532;-79
2023/06/05 12:49:47;;;;;;;9.37;8.47;;;19.10;99.90;;;;;;5034944;28;20477;-79
2023/06/05 12:52:14;;;;;;;8.70;8.00;;;18.90;99.90;;;;;;5027647;28;20478;-80
2023/06/05 12:54:41;;;;;;;11.03;10.13;;;18.80;99.90;;;;;;5032851;28;20527;-80
2023/06/05 12:57:09;;;;;;;10.20;9.33;;;19.00;99.90;;;;;;5028199;28;20976;-83